sensor_id;sensor_type;location;lat;lon;timestamp;P1;durP1;ratioP1;P2;durP2;ratioP2
14191;SDS011;7177;48.572;7.838;2024-02-23T00:01:14;2.00;;;1.00;;
14191;SDS011;7177;48.572;7.838;2024-02-23T00:03:40;3.93;;;1.40;;
14191;SDS011;7177;48.572;7.838;2024-02-23T00:06:06;2.90;;;1.43;;
14191;SDS011;7177;48.572;7.838;2024-02-23T00:08:32;3.37;;;1.30;;
14191;SDS011;7177;48.572;7.838;2024-02-23T00:10:58;4.50;;;1.30;;
14191;SDS011;7177;48.572;7.838;2024-02-23T00:13:23;5.60;;;1.30;;
14191;SDS011;7177;48.572;7.838;2024-02-23T00:15:49;2.60;;;1.40;;
14191;SDS011;7177;48.572;7.838;2024-02-23T00:18:14;3.40;;;1.57;;
14191;SDS011;7177;48.572;7.838;2024-02-23T00:20:41;2.60;;;1.50;;
14191;SDS011;7177;48.572;7.838;2024-02-23T00:23:07;3.67;;;1.50;;
14191;SDS011;7177;48.572;7.838;2024-02-23T00:25:32;4.73;;;1.50;;
14191;SDS011;7177;48.572;7.838;2024-02-23T00:27:58;3.40;;;1.40;;
14191;SDS011;7177;48.572;7.838;2024-02-23T00:30:23;2.97;;;1.00;;
14191;SDS011;7177;48.572;7.838;2024-02-23T00:32:49;4.60;;;1.30;;
14191;SDS011;7177;48.572;7.838;2024-02-23T00:35:14;4.10;;;1.40;;
14191;SDS011;7177;48.572;7.838;2024-02-23T00:37:40;3.10;;;1.40;;
14191;SDS011;7177;48.572;7.838;2024-02-23T00:40:06;5.20;;;1.47;;
14191;SDS011;7177;48.572;7.838;2024-02-23T00:42:32;4.00;;;1.27;;
14191;SDS011;7177;48.572;7.838;2024-02-23T00:44:57;3.53;;;1.33;;
14191;SDS011;7177;48.572;7.838;2024-02-23T00:47:23;2.67;;;1.13;;
14191;SDS011;7177;48.572;7.838;2024-02-23T00:49:48;3.40;;;1.60;;
14191;SDS011;7177;48.572;7.838;2024-02-23T00:52:14;4.77;;;1.73;;
14191;SDS011;7177;48.572;7.838;2024-02-23T00:54:40;5.00;;;1.50;;
14191;SDS011;7177;48.572;7.838;2024-02-23T00:57:06;5.37;;;1.50;;
14191;SDS011;7177;48.572;7.838;2024-02-23T00:59:31;2.70;;;1.10;;
14191;SDS011;7177;48.572;7.838;2024-02-23T01:01:57;1.60;;;1.10;;
14191;SDS011;7177;48.572;7.838;2024-02-23T01:04:23;2.77;;;1.00;;
14191;SDS011;7177;48.572;7.838;2024-02-23T01:06:48;4.73;;;1.20;;
14191;SDS011;7177;48.572;7.838;2024-02-23T01:09:14;1.60;;;1.20;;
14191;SDS011;7177;48.572;7.838;2024-02-23T01:11:42;4.47;;;1.40;;
14191;SDS011;7177;48.572;7.838;2024-02-23T01:14:07;3.87;;;1.50;;
14191;SDS011;7177;48.572;7.838;2024-02-23T01:16:33;1.40;;;1.10;;
14191;SDS011;7177;48.572;7.838;2024-02-23T01:18:58;2.67;;;1.10;;
14191;SDS011;7177;48.572;7.838;2024-02-23T01:21:24;1.87;;;1.20;;
14191;SDS011;7177;48.572;7.838;2024-02-23T01:23:49;3.83;;;1.40;;
14191;SDS011;7177;48.572;7.838;2024-02-23T01:26:15;3.10;;;1.30;;
14191;SDS011;7177;48.572;7.838;2024-02-23T01:28:40;4.37;;;1.67;;
14191;SDS011;7177;48.572;7.838;2024-02-23T01:31:10;3.63;;;1.40;;
14191;SDS011;7177;48.572;7.838;2024-02-23T01:33:36;3.20;;;1.33;;
14191;SDS011;7177;48.572;7.838;2024-02-23T01:36:03;3.20;;;1.33;;
14191;SDS011;7177;48.572;7.838;2024-02-23T01:38:32;8.03;;;1.37;;
14191;SDS011;7177;48.572;7.838;2024-02-23T01:40:59;4.40;;;1.70;;
14191;SDS011;7177;48.572;7.838;2024-02-23T01:43:25;3.87;;;1.20;;
14191;SDS011;7177;48.572;7.838;2024-02-23T01:45:51;4.80;;;1.20;;
14191;SDS011;7177;48.572;7.838;2024-02-23T01:48:17;5.63;;;1.60;;
14191;SDS011;7177;48.572;7.838;2024-02-23T01:50:43;2.93;;;1.30;;
14191;SDS011;7177;48.572;7.838;2024-02-23T01:53:09;6.57;;;1.40;;
14191;SDS011;7177;48.572;7.838;2024-02-23T01:55:37;3.37;;;1.10;;
14191;SDS011;7177;48.572;7.838;2024-02-23T01:58:04;2.13;;;1.30;;
14191;SDS011;7177;48.572;7.838;2024-02-23T02:00:30;4.30;;;1.10;;
14191;SDS011;7177;48.572;7.838;2024-02-23T02:02:56;1.73;;;1.27;;
14191;SDS011;7177;48.572;7.838;2024-02-23T02:05:22;2.80;;;1.03;;
14191;SDS011;7177;48.572;7.838;2024-02-23T02:07:49;2.80;;;1.10;;
14191;SDS011;7177;48.572;7.838;2024-02-23T02:10:18;4.50;;;1.50;;
14191;SDS011;7177;48.572;7.838;2024-02-23T02:12:45;3.10;;;1.10;;
14191;SDS011;7177;48.572;7.838;2024-02-23T02:15:11;4.80;;;1.30;;
14191;SDS011;7177;48.572;7.838;2024-02-23T02:17:36;5.03;;;1.77;;
14191;SDS011;7177;48.572;7.838;2024-02-23T02:20:02;2.83;;;1.13;;
14191;SDS011;7177;48.572;7.838;2024-02-23T02:22:32;4.60;;;1.30;;
14191;SDS011;7177;48.572;7.838;2024-02-23T02:24:58;5.80;;;1.20;;
14191;SDS011;7177;48.572;7.838;2024-02-23T02:27:24;2.10;;;1.10;;
14191;SDS011;7177;48.572;7.838;2024-02-23T02:29:50;2.90;;;1.30;;
14191;SDS011;7177;48.572;7.838;2024-02-23T02:32:16;4.90;;;1.13;;
14191;SDS011;7177;48.572;7.838;2024-02-23T02:34:42;2.60;;;1.20;;
14191;SDS011;7177;48.572;7.838;2024-02-23T02:37:07;3.27;;;1.37;;
14191;SDS011;7177;48.572;7.838;2024-02-23T02:39:33;5.67;;;1.23;;
14191;SDS011;7177;48.572;7.838;2024-02-23T02:41:59;4.77;;;1.30;;
14191;SDS011;7177;48.572;7.838;2024-02-23T02:44:24;3.43;;;1.10;;
14191;SDS011;7177;48.572;7.838;2024-02-23T02:46:51;3.83;;;1.20;;
14191;SDS011;7177;48.572;7.838;2024-02-23T02:49:17;2.73;;;1.10;;
14191;SDS011;7177;48.572;7.838;2024-02-23T02:51:42;3.60;;;1.40;;
14191;SDS011;7177;48.572;7.838;2024-02-23T02:54:10;4.60;;;1.50;;
14191;SDS011;7177;48.572;7.838;2024-02-23T02:56:35;3.50;;;1.23;;
14191;SDS011;7177;48.572;7.838;2024-02-23T02:59:01;3.67;;;1.10;;
14191;SDS011;7177;48.572;7.838;2024-02-23T03:01:26;3.07;;;1.50;;
14191;SDS011;7177;48.572;7.838;2024-02-23T03:03:55;2.43;;;1.50;;
14191;SDS011;7177;48.572;7.838;2024-02-23T03:06:20;2.93;;;1.50;;
14191;SDS011;7177;48.572;7.838;2024-02-23T03:08:46;4.00;;;2.00;;
14191;SDS011;7177;48.572;7.838;2024-02-23T03:11:11;4.47;;;1.53;;
14191;SDS011;7177;48.572;7.838;2024-02-23T03:13:37;3.87;;;1.97;;
14191;SDS011;7177;48.572;7.838;2024-02-23T03:16:03;5.33;;;1.50;;
14191;SDS011;7177;48.572;7.838;2024-02-23T03:18:28;3.60;;;1.47;;
14191;SDS011;7177;48.572;7.838;2024-02-23T03:20:54;3.00;;;1.40;;
14191;SDS011;7177;48.572;7.838;2024-02-23T03:23:20;4.90;;;1.30;;
14191;SDS011;7177;48.572;7.838;2024-02-23T03:25:46;3.77;;;1.30;;
14191;SDS011;7177;48.572;7.838;2024-02-23T03:28:11;2.93;;;1.13;;
14191;SDS011;7177;48.572;7.838;2024-02-23T03:30:37;2.90;;;1.17;;
14191;SDS011;7177;48.572;7.838;2024-02-23T03:33:02;2.40;;;1.20;;
14191;SDS011;7177;48.572;7.838;2024-02-23T03:35:28;4.03;;;1.23;;
14191;SDS011;7177;48.572;7.838;2024-02-23T03:37:53;2.73;;;1.20;;
14191;SDS011;7177;48.572;7.838;2024-02-23T03:40:19;5.70;;;1.20;;
14191;SDS011;7177;48.572;7.838;2024-02-23T03:42:45;6.47;;;1.27;;
14191;SDS011;7177;48.572;7.838;2024-02-23T03:45:10;5.37;;;1.43;;
14191;SDS011;7177;48.572;7.838;2024-02-23T03:47:36;3.13;;;1.37;;
14191;SDS011;7177;48.572;7.838;2024-02-23T03:50:01;3.10;;;1.37;;
14191;SDS011;7177;48.572;7.838;2024-02-23T03:52:27;4.40;;;1.30;;
14191;SDS011;7177;48.572;7.838;2024-02-23T03:54:52;4.20;;;1.40;;
14191;SDS011;7177;48.572;7.838;2024-02-23T03:57:19;5.03;;;1.50;;
14191;SDS011;7177;48.572;7.838;2024-02-23T03:59:54;4.00;;;1.33;;
14191;SDS011;7177;48.572;7.838;2024-02-23T04:02:20;6.03;;;1.50;;
14191;SDS011;7177;48.572;7.838;2024-02-23T04:04:47;1.80;;;1.20;;
14191;SDS011;7177;48.572;7.838;2024-02-23T04:07:13;1.77;;;1.10;;
14191;SDS011;7177;48.572;7.838;2024-02-23T04:09:38;2.10;;;1.20;;
14191;SDS011;7177;48.572;7.838;2024-02-23T04:12:04;4.30;;;1.50;;
14191;SDS011;7177;48.572;7.838;2024-02-23T04:14:30;5.80;;;1.17;;
14191;SDS011;7177;48.572;7.838;2024-02-23T04:16:56;5.50;;;1.53;;
14191;SDS011;7177;48.572;7.838;2024-02-23T04:19:21;2.40;;;1.10;;
14191;SDS011;7177;48.572;7.838;2024-02-23T04:21:47;3.57;;;1.40;;
14191;SDS011;7177;48.572;7.838;2024-02-23T04:24:12;4.40;;;1.30;;
14191;SDS011;7177;48.572;7.838;2024-02-23T04:26:38;3.83;;;1.33;;
14191;SDS011;7177;48.572;7.838;2024-02-23T04:29:03;3.33;;;1.30;;
14191;SDS011;7177;48.572;7.838;2024-02-23T04:31:29;2.73;;;1.40;;
14191;SDS011;7177;48.572;7.838;2024-02-23T04:33:55;7.77;;;1.40;;
14191;SDS011;7177;48.572;7.838;2024-02-23T04:36:21;4.07;;;1.40;;
14191;SDS011;7177;48.572;7.838;2024-02-23T04:38:46;3.13;;;1.30;;
14191;SDS011;7177;48.572;7.838;2024-02-23T04:41:12;2.60;;;1.20;;
14191;SDS011;7177;48.572;7.838;2024-02-23T04:43:37;3.60;;;1.30;;
14191;SDS011;7177;48.572;7.838;2024-02-23T04:46:03;4.07;;;1.30;;
14191;SDS011;7177;48.572;7.838;2024-02-23T04:48:29;5.20;;;1.33;;
14191;SDS011;7177;48.572;7.838;2024-02-23T04:50:56;4.60;;;1.70;;
14191;SDS011;7177;48.572;7.838;2024-02-23T04:53:22;5.17;;;1.40;;
14191;SDS011;7177;48.572;7.838;2024-02-23T04:55:48;5.10;;;1.60;;
14191;SDS011;7177;48.572;7.838;2024-02-23T04:58:13;3.77;;;1.20;;
14191;SDS011;7177;48.572;7.838;2024-02-23T05:00:39;2.70;;;1.40;;
14191;SDS011;7177;48.572;7.838;2024-02-23T05:03:05;3.10;;;1.20;;
14191;SDS011;7177;48.572;7.838;2024-02-23T05:05:31;4.57;;;1.30;;
14191;SDS011;7177;48.572;7.838;2024-02-23T05:07:57;7.47;;;1.47;;
14191;SDS011;7177;48.572;7.838;2024-02-23T05:10:23;4.57;;;1.33;;
14191;SDS011;7177;48.572;7.838;2024-02-23T05:12:49;6.23;;;1.43;;
14191;SDS011;7177;48.572;7.838;2024-02-23T05:15:15;4.13;;;1.63;;
14191;SDS011;7177;48.572;7.838;2024-02-23T05:17:40;3.37;;;1.60;;
14191;SDS011;7177;48.572;7.838;2024-02-23T05:20:06;3.30;;;1.73;;
14191;SDS011;7177;48.572;7.838;2024-02-23T05:22:35;3.40;;;1.50;;
14191;SDS011;7177;48.572;7.838;2024-02-23T05:25:01;4.40;;;1.70;;
14191;SDS011;7177;48.572;7.838;2024-02-23T05:27:26;7.37;;;1.87;;
14191;SDS011;7177;48.572;7.838;2024-02-23T05:29:52;4.90;;;1.70;;
14191;SDS011;7177;48.572;7.838;2024-02-23T05:32:18;3.83;;;1.40;;
14191;SDS011;7177;48.572;7.838;2024-02-23T05:34:44;3.77;;;1.27;;
14191;SDS011;7177;48.572;7.838;2024-02-23T05:37:10;4.57;;;1.63;;
14191;SDS011;7177;48.572;7.838;2024-02-23T05:39:35;3.57;;;1.40;;
14191;SDS011;7177;48.572;7.838;2024-02-23T05:42:02;4.63;;;1.53;;
14191;SDS011;7177;48.572;7.838;2024-02-23T05:44:29;5.43;;;1.50;;
14191;SDS011;7177;48.572;7.838;2024-02-23T05:46:54;4.17;;;1.20;;
14191;SDS011;7177;48.572;7.838;2024-02-23T05:49:20;3.20;;;1.27;;
14191;SDS011;7177;48.572;7.838;2024-02-23T05:51:46;3.53;;;1.67;;
14191;SDS011;7177;48.572;7.838;2024-02-23T05:54:11;4.47;;;1.57;;
14191;SDS011;7177;48.572;7.838;2024-02-23T05:56:37;4.17;;;1.63;;
14191;SDS011;7177;48.572;7.838;2024-02-23T05:59:02;6.23;;;1.90;;
14191;SDS011;7177;48.572;7.838;2024-02-23T06:01:28;3.77;;;1.80;;
14191;SDS011;7177;48.572;7.838;2024-02-23T06:03:53;2.20;;;1.50;;
14191;SDS011;7177;48.572;7.838;2024-02-23T06:06:20;3.40;;;1.60;;
14191;SDS011;7177;48.572;7.838;2024-02-23T06:08:45;2.97;;;1.83;;
14191;SDS011;7177;48.572;7.838;2024-02-23T06:11:11;5.50;;;1.90;;
14191;SDS011;7177;48.572;7.838;2024-02-23T06:13:37;4.67;;;1.63;;
14191;SDS011;7177;48.572;7.838;2024-02-23T06:16:03;4.90;;;1.90;;
14191;SDS011;7177;48.572;7.838;2024-02-23T06:18:29;3.95;;;1.63;;
14191;SDS011;7177;48.572;7.838;2024-02-23T06:20:55;3.30;;;1.53;;
14191;SDS011;7177;48.572;7.838;2024-02-23T06:23:20;2.57;;;1.60;;
14191;SDS011;7177;48.572;7.838;2024-02-23T06:25:47;4.83;;;1.80;;
14191;SDS011;7177;48.572;7.838;2024-02-23T06:28:12;5.80;;;1.50;;
14191;SDS011;7177;48.572;7.838;2024-02-23T06:30:38;4.07;;;1.60;;
14191;SDS011;7177;48.572;7.838;2024-02-23T06:33:03;8.40;;;1.73;;
14191;SDS011;7177;48.572;7.838;2024-02-23T06:35:31;6.35;;;1.90;;
14191;SDS011;7177;48.572;7.838;2024-02-23T06:37:57;4.07;;;1.50;;
14191;SDS011;7177;48.572;7.838;2024-02-23T06:40:23;3.47;;;1.43;;
14191;SDS011;7177;48.572;7.838;2024-02-23T06:42:48;5.83;;;1.40;;
14191;SDS011;7177;48.572;7.838;2024-02-23T06:45:15;2.90;;;1.67;;
14191;SDS011;7177;48.572;7.838;2024-02-23T06:47:40;3.10;;;1.53;;
14191;SDS011;7177;48.572;7.838;2024-02-23T06:50:07;7.30;;;2.10;;
14191;SDS011;7177;48.572;7.838;2024-02-23T06:52:33;7.57;;;1.85;;
14191;SDS011;7177;48.572;7.838;2024-02-23T06:54:59;6.53;;;2.33;;
14191;SDS011;7177;48.572;7.838;2024-02-23T06:57:25;8.33;;;1.83;;
14191;SDS011;7177;48.572;7.838;2024-02-23T06:59:51;9.77;;;2.07;;
14191;SDS011;7177;48.572;7.838;2024-02-23T07:02:16;5.60;;;2.00;;
14191;SDS011;7177;48.572;7.838;2024-02-23T07:04:42;11.10;;;2.40;;
14191;SDS011;7177;48.572;7.838;2024-02-23T07:07:07;4.27;;;1.77;;
14191;SDS011;7177;48.572;7.838;2024-02-23T07:09:33;7.97;;;1.80;;
14191;SDS011;7177;48.572;7.838;2024-02-23T07:11:59;8.05;;;2.20;;
14191;SDS011;7177;48.572;7.838;2024-02-23T07:14:25;5.30;;;2.37;;
14191;SDS011;7177;48.572;7.838;2024-02-23T07:16:51;12.37;;;2.07;;
14191;SDS011;7177;48.572;7.838;2024-02-23T07:19:17;5.83;;;1.90;;
14191;SDS011;7177;48.572;7.838;2024-02-23T07:21:43;5.47;;;1.90;;
14191;SDS011;7177;48.572;7.838;2024-02-23T07:24:08;12.27;;;2.10;;
14191;SDS011;7177;48.572;7.838;2024-02-23T07:26:34;8.50;;;2.60;;
14191;SDS011;7177;48.572;7.838;2024-02-23T07:28:59;4.57;;;1.90;;
14191;SDS011;7177;48.572;7.838;2024-02-23T07:31:25;6.33;;;1.90;;
14191;SDS011;7177;48.572;7.838;2024-02-23T07:33:50;8.83;;;2.53;;
14191;SDS011;7177;48.572;7.838;2024-02-23T07:36:16;6.93;;;2.00;;
14191;SDS011;7177;48.572;7.838;2024-02-23T07:38:42;6.77;;;2.10;;
14191;SDS011;7177;48.572;7.838;2024-02-23T07:41:11;6.70;;;2.22;;
14191;SDS011;7177;48.572;7.838;2024-02-23T07:43:38;6.07;;;2.10;;
14191;SDS011;7177;48.572;7.838;2024-02-23T07:46:04;6.17;;;1.80;;
14191;SDS011;7177;48.572;7.838;2024-02-23T07:48:30;4.50;;;1.60;;
14191;SDS011;7177;48.572;7.838;2024-02-23T07:50:55;8.53;;;2.50;;
14191;SDS011;7177;48.572;7.838;2024-02-23T07:53:21;6.20;;;1.87;;
14191;SDS011;7177;48.572;7.838;2024-02-23T07:55:46;6.00;;;1.53;;
14191;SDS011;7177;48.572;7.838;2024-02-23T07:58:12;6.00;;;2.30;;
14191;SDS011;7177;48.572;7.838;2024-02-23T08:00:37;9.67;;;2.33;;
14191;SDS011;7177;48.572;7.838;2024-02-23T08:03:03;6.03;;;2.27;;
14191;SDS011;7177;48.572;7.838;2024-02-23T08:05:29;8.37;;;1.87;;
14191;SDS011;7177;48.572;7.838;2024-02-23T08:07:55;6.27;;;2.07;;
14191;SDS011;7177;48.572;7.838;2024-02-23T08:10:20;8.57;;;2.50;;
14191;SDS011;7177;48.572;7.838;2024-02-23T08:12:46;8.23;;;1.80;;
14191;SDS011;7177;48.572;7.838;2024-02-23T08:15:12;6.67;;;2.50;;
14191;SDS011;7177;48.572;7.838;2024-02-23T08:17:38;8.33;;;2.37;;
14191;SDS011;7177;48.572;7.838;2024-02-23T08:20:03;8.60;;;2.40;;
14191;SDS011;7177;48.572;7.838;2024-02-23T08:22:30;7.03;;;2.20;;
14191;SDS011;7177;48.572;7.838;2024-02-23T08:24:56;9.83;;;2.00;;
14191;SDS011;7177;48.572;7.838;2024-02-23T08:27:21;8.27;;;2.43;;
14191;SDS011;7177;48.572;7.838;2024-02-23T08:29:47;6.33;;;2.70;;
14191;SDS011;7177;48.572;7.838;2024-02-23T08:32:13;8.50;;;2.37;;
14191;SDS011;7177;48.572;7.838;2024-02-23T08:34:38;7.07;;;2.47;;
14191;SDS011;7177;48.572;7.838;2024-02-23T08:37:04;9.50;;;2.77;;
14191;SDS011;7177;48.572;7.838;2024-02-23T08:39:30;8.53;;;2.27;;
14191;SDS011;7177;48.572;7.838;2024-02-23T08:41:55;8.50;;;2.50;;
14191;SDS011;7177;48.572;7.838;2024-02-23T08:44:21;9.63;;;1.97;;
14191;SDS011;7177;48.572;7.838;2024-02-23T08:46:46;5.13;;;2.30;;
14191;SDS011;7177;48.572;7.838;2024-02-23T08:49:13;6.87;;;2.37;;
14191;SDS011;7177;48.572;7.838;2024-02-23T08:51:39;12.33;;;2.80;;
14191;SDS011;7177;48.572;7.838;2024-02-23T08:54:05;6.53;;;2.43;;
14191;SDS011;7177;48.572;7.838;2024-02-23T08:56:31;4.50;;;1.87;;
14191;SDS011;7177;48.572;7.838;2024-02-23T08:59:01;10.60;;;2.20;;
14191;SDS011;7177;48.572;7.838;2024-02-23T09:01:27;4.57;;;1.77;;
14191;SDS011;7177;48.572;7.838;2024-02-23T09:03:52;8.50;;;2.20;;
14191;SDS011;7177;48.572;7.838;2024-02-23T09:06:18;5.93;;;1.80;;
14191;SDS011;7177;48.572;7.838;2024-02-23T09:08:44;11.10;;;2.47;;
14191;SDS011;7177;48.572;7.838;2024-02-23T09:11:10;5.03;;;2.00;;
14191;SDS011;7177;48.572;7.838;2024-02-23T09:13:38;8.53;;;2.13;;
14191;SDS011;7177;48.572;7.838;2024-02-23T09:16:03;7.63;;;2.47;;
14191;SDS011;7177;48.572;7.838;2024-02-23T09:18:29;10.07;;;2.20;;
14191;SDS011;7177;48.572;7.838;2024-02-23T09:20:55;8.63;;;2.23;;
14191;SDS011;7177;48.572;7.838;2024-02-23T09:23:20;10.30;;;2.70;;
14191;SDS011;7177;48.572;7.838;2024-02-23T09:25:46;7.03;;;2.23;;
14191;SDS011;7177;48.572;7.838;2024-02-23T09:28:11;6.27;;;2.13;;
14191;SDS011;7177;48.572;7.838;2024-02-23T09:30:37;7.67;;;2.30;;
14191;SDS011;7177;48.572;7.838;2024-02-23T09:33:03;7.53;;;2.20;;
14191;SDS011;7177;48.572;7.838;2024-02-23T09:35:29;7.93;;;2.20;;
14191;SDS011;7177;48.572;7.838;2024-02-23T09:37:54;9.60;;;2.30;;
14191;SDS011;7177;48.572;7.838;2024-02-23T09:40:20;7.33;;;2.00;;
14191;SDS011;7177;48.572;7.838;2024-02-23T09:42:51;6.60;;;2.00;;
14191;SDS011;7177;48.572;7.838;2024-02-23T09:45:21;8.87;;;2.10;;
14191;SDS011;7177;48.572;7.838;2024-02-23T09:47:48;12.33;;;2.10;;
14191;SDS011;7177;48.572;7.838;2024-02-23T09:50:14;5.83;;;2.13;;
14191;SDS011;7177;48.572;7.838;2024-02-23T09:52:42;8.77;;;2.10;;
14191;SDS011;7177;48.572;7.838;2024-02-23T09:55:08;9.03;;;1.97;;
14191;SDS011;7177;48.572;7.838;2024-02-23T09:57:35;13.17;;;2.10;;
14191;SDS011;7177;48.572;7.838;2024-02-23T10:00:01;5.07;;;1.47;;
14191;SDS011;7177;48.572;7.838;2024-02-23T10:02:31;9.07;;;2.37;;
14191;SDS011;7177;48.572;7.838;2024-02-23T10:04:57;12.77;;;1.90;;
14191;SDS011;7177;48.572;7.838;2024-02-23T10:07:24;8.57;;;2.30;;
14191;SDS011;7177;48.572;7.838;2024-02-23T10:09:50;7.90;;;2.50;;
14191;SDS011;7177;48.572;7.838;2024-02-23T10:12:16;6.20;;;1.67;;
14191;SDS011;7177;48.572;7.838;2024-02-23T10:14:42;8.10;;;1.97;;
14191;SDS011;7177;48.572;7.838;2024-02-23T10:17:08;6.43;;;2.47;;
14191;SDS011;7177;48.572;7.838;2024-02-23T10:19:34;6.60;;;1.90;;
14191;SDS011;7177;48.572;7.838;2024-02-23T10:21:59;6.87;;;2.00;;
14191;SDS011;7177;48.572;7.838;2024-02-23T10:24:25;8.57;;;3.90;;
14191;SDS011;7177;48.572;7.838;2024-02-23T10:26:51;10.07;;;2.10;;
14191;SDS011;7177;48.572;7.838;2024-02-23T10:29:17;9.47;;;2.83;;
14191;SDS011;7177;48.572;7.838;2024-02-23T10:31:42;9.80;;;1.90;;
14191;SDS011;7177;48.572;7.838;2024-02-23T10:34:12;7.93;;;2.63;;
14191;SDS011;7177;48.572;7.838;2024-02-23T10:36:40;9.57;;;2.30;;
14191;SDS011;7177;48.572;7.838;2024-02-23T10:39:10;6.30;;;1.70;;
14191;SDS011;7177;48.572;7.838;2024-02-23T10:41:40;8.20;;;1.73;;
14191;SDS011;7177;48.572;7.838;2024-02-23T10:44:12;5.77;;;2.20;;
14191;SDS011;7177;48.572;7.838;2024-02-23T10:46:39;6.17;;;1.87;;
14191;SDS011;7177;48.572;7.838;2024-02-23T10:49:05;6.47;;;2.00;;
14191;SDS011;7177;48.572;7.838;2024-02-23T10:51:32;7.93;;;1.97;;
14191;SDS011;7177;48.572;7.838;2024-02-23T10:53:58;5.23;;;1.80;;
14191;SDS011;7177;48.572;7.838;2024-02-23T10:56:25;5.57;;;2.10;;
14191;SDS011;7177;48.572;7.838;2024-02-23T10:58:52;6.67;;;1.93;;
14191;SDS011;7177;48.572;7.838;2024-02-23T11:01:17;4.57;;;2.07;;
14191;SDS011;7177;48.572;7.838;2024-02-23T11:03:44;7.37;;;2.50;;
14191;SDS011;7177;48.572;7.838;2024-02-23T11:06:14;10.53;;;2.53;;
14191;SDS011;7177;48.572;7.838;2024-02-23T11:08:45;7.03;;;1.83;;
14191;SDS011;7177;48.572;7.838;2024-02-23T11:11:11;6.37;;;1.90;;
14191;SDS011;7177;48.572;7.838;2024-02-23T11:13:39;5.70;;;2.00;;
14191;SDS011;7177;48.572;7.838;2024-02-23T11:16:05;3.73;;;1.80;;
14191;SDS011;7177;48.572;7.838;2024-02-23T11:18:34;5.50;;;1.90;;
14191;SDS011;7177;48.572;7.838;2024-02-23T11:21:02;7.20;;;2.10;;
14191;SDS011;7177;48.572;7.838;2024-02-23T11:23:40;4.43;;;1.80;;
14191;SDS011;7177;48.572;7.838;2024-02-23T11:26:17;6.47;;;1.90;;
14191;SDS011;7177;48.572;7.838;2024-02-23T11:31:12;5.40;;;2.10;;
14191;SDS011;7177;48.572;7.838;2024-02-23T11:33:39;4.87;;;1.97;;
14191;SDS011;7177;48.572;7.838;2024-02-23T11:36:07;7.33;;;1.83;;
14191;SDS011;7177;48.572;7.838;2024-02-23T11:38:33;7.00;;;1.90;;
14191;SDS011;7177;48.572;7.838;2024-02-23T11:41:00;5.00;;;1.90;;
14191;SDS011;7177;48.572;7.838;2024-02-23T11:43:27;6.80;;;2.00;;
14191;SDS011;7177;48.572;7.838;2024-02-23T11:45:53;6.20;;;1.90;;
14191;SDS011;7177;48.572;7.838;2024-02-23T11:48:18;8.70;;;2.00;;
14191;SDS011;7177;48.572;7.838;2024-02-23T11:50:44;6.70;;;1.50;;
14191;SDS011;7177;48.572;7.838;2024-02-23T11:53:10;9.17;;;1.90;;
14191;SDS011;7177;48.572;7.838;2024-02-23T11:55:35;5.30;;;2.03;;
14191;SDS011;7177;48.572;7.838;2024-02-23T11:58:01;3.63;;;1.47;;
14191;SDS011;7177;48.572;7.838;2024-02-23T12:00:27;9.03;;;2.03;;
14191;SDS011;7177;48.572;7.838;2024-02-23T12:02:55;3.80;;;2.00;;
14191;SDS011;7177;48.572;7.838;2024-02-23T12:05:20;5.30;;;1.63;;
14191;SDS011;7177;48.572;7.838;2024-02-23T12:07:46;3.83;;;1.90;;
14191;SDS011;7177;48.572;7.838;2024-02-23T12:10:12;4.17;;;1.37;;
14191;SDS011;7177;48.572;7.838;2024-02-23T12:12:38;5.03;;;1.93;;
14191;SDS011;7177;48.572;7.838;2024-02-23T12:15:04;6.70;;;2.40;;
14191;SDS011;7177;48.572;7.838;2024-02-23T12:17:31;5.37;;;1.70;;
14191;SDS011;7177;48.572;7.838;2024-02-23T12:20:00;4.60;;;1.67;;
14191;SDS011;7177;48.572;7.838;2024-02-23T12:22:26;6.53;;;1.80;;
14191;SDS011;7177;48.572;7.838;2024-02-23T12:24:52;5.57;;;1.80;;
14191;SDS011;7177;48.572;7.838;2024-02-23T12:27:17;5.50;;;1.93;;
14191;SDS011;7177;48.572;7.838;2024-02-23T12:29:50;7.47;;;1.80;;
14191;SDS011;7177;48.572;7.838;2024-02-23T12:32:22;5.73;;;1.80;;
14191;SDS011;7177;48.572;7.838;2024-02-23T12:34:48;5.50;;;1.40;;
14191;SDS011;7177;48.572;7.838;2024-02-23T12:37:20;4.20;;;1.83;;
14191;SDS011;7177;48.572;7.838;2024-02-23T12:39:47;3.90;;;1.63;;
14191;SDS011;7177;48.572;7.838;2024-02-23T12:42:13;1.77;;;1.20;;
14191;SDS011;7177;48.572;7.838;2024-02-23T12:44:38;2.67;;;1.30;;
14191;SDS011;7177;48.572;7.838;2024-02-23T12:47:04;3.83;;;1.40;;
14191;SDS011;7177;48.572;7.838;2024-02-23T12:49:29;2.60;;;1.40;;
14191;SDS011;7177;48.572;7.838;2024-02-23T12:51:55;1.57;;;1.10;;
14191;SDS011;7177;48.572;7.838;2024-02-23T12:54:21;3.33;;;1.40;;
14191;SDS011;7177;48.572;7.838;2024-02-23T12:56:47;6.17;;;1.40;;
14191;SDS011;7177;48.572;7.838;2024-02-23T12:59:13;2.67;;;1.20;;
14191;SDS011;7177;48.572;7.838;2024-02-23T13:01:38;1.83;;;1.33;;
14191;SDS011;7177;48.572;7.838;2024-02-23T13:04:04;4.83;;;1.40;;
14191;SDS011;7177;48.572;7.838;2024-02-23T13:06:39;3.00;;;1.07;;
14191;SDS011;7177;48.572;7.838;2024-02-23T13:09:05;2.93;;;1.30;;
14191;SDS011;7177;48.572;7.838;2024-02-23T13:11:33;3.00;;;1.40;;
14191;SDS011;7177;48.572;7.838;2024-02-23T13:13:59;4.07;;;1.10;;
14191;SDS011;7177;48.572;7.838;2024-02-23T13:16:25;1.60;;;1.00;;
14191;SDS011;7177;48.572;7.838;2024-02-23T13:18:51;2.63;;;1.10;;
14191;SDS011;7177;48.572;7.838;2024-02-23T13:21:17;2.10;;;1.10;;
14191;SDS011;7177;48.572;7.838;2024-02-23T13:23:42;2.33;;;1.00;;
14191;SDS011;7177;48.572;7.838;2024-02-23T13:26:08;1.60;;;0.80;;
14191;SDS011;7177;48.572;7.838;2024-02-23T13:28:35;1.37;;;1.00;;
14191;SDS011;7177;48.572;7.838;2024-02-23T13:31:01;2.37;;;1.00;;
14191;SDS011;7177;48.572;7.838;2024-02-23T13:33:27;2.30;;;1.03;;
14191;SDS011;7177;48.572;7.838;2024-02-23T13:35:53;1.87;;;0.80;;
14191;SDS011;7177;48.572;7.838;2024-02-23T13:38:20;3.60;;;1.20;;
14191;SDS011;7177;48.572;7.838;2024-02-23T13:40:45;2.83;;;1.00;;
14191;SDS011;7177;48.572;7.838;2024-02-23T13:43:11;1.50;;;1.10;;
14191;SDS011;7177;48.572;7.838;2024-02-23T13:45:48;3.40;;;0.97;;
14191;SDS011;7177;48.572;7.838;2024-02-23T13:48:16;1.50;;;0.80;;
14191;SDS011;7177;48.572;7.838;2024-02-23T13:50:41;2.13;;;1.20;;
14191;SDS011;7177;48.572;7.838;2024-02-23T13:53:07;5.33;;;1.10;;
14191;SDS011;7177;48.572;7.838;2024-02-23T13:55:32;2.27;;;1.13;;
14191;SDS011;7177;48.572;7.838;2024-02-23T13:57:58;2.60;;;1.00;;
14191;SDS011;7177;48.572;7.838;2024-02-23T14:00:23;1.90;;;1.17;;
14191;SDS011;7177;48.572;7.838;2024-02-23T14:02:49;3.37;;;1.30;;
14191;SDS011;7177;48.572;7.838;2024-02-23T14:05:14;2.20;;;1.10;;
14191;SDS011;7177;48.572;7.838;2024-02-23T14:07:42;3.73;;;1.20;;
14191;SDS011;7177;48.572;7.838;2024-02-23T14:10:09;3.17;;;1.23;;
14191;SDS011;7177;48.572;7.838;2024-02-23T14:12:34;3.47;;;1.20;;
14191;SDS011;7177;48.572;7.838;2024-02-23T14:15:00;3.83;;;1.40;;
14191;SDS011;7177;48.572;7.838;2024-02-23T14:17:26;2.60;;;1.57;;
14191;SDS011;7177;48.572;7.838;2024-02-23T14:19:51;4.10;;;1.10;;
14191;SDS011;7177;48.572;7.838;2024-02-23T14:22:17;4.20;;;1.40;;
14191;SDS011;7177;48.572;7.838;2024-02-23T14:24:43;1.63;;;1.13;;
14191;SDS011;7177;48.572;7.838;2024-02-23T14:27:08;2.90;;;1.40;;
14191;SDS011;7177;48.572;7.838;2024-02-23T14:29:34;2.23;;;1.20;;
14191;SDS011;7177;48.572;7.838;2024-02-23T14:31:59;2.80;;;1.20;;
14191;SDS011;7177;48.572;7.838;2024-02-23T14:34:26;4.20;;;1.10;;
14191;SDS011;7177;48.572;7.838;2024-02-23T14:36:52;1.30;;;1.00;;
14191;SDS011;7177;48.572;7.838;2024-02-23T14:39:17;3.23;;;1.30;;
14191;SDS011;7177;48.572;7.838;2024-02-23T14:41:43;2.67;;;1.30;;
14191;SDS011;7177;48.572;7.838;2024-02-23T14:44:09;2.73;;;1.40;;
14191;SDS011;7177;48.572;7.838;2024-02-23T14:46:34;4.13;;;1.70;;
14191;SDS011;7177;48.572;7.838;2024-02-23T14:49:00;4.67;;;1.47;;
14191;SDS011;7177;48.572;7.838;2024-02-23T14:51:25;6.23;;;1.37;;
14191;SDS011;7177;48.572;7.838;2024-02-23T14:53:51;2.80;;;1.10;;
14191;SDS011;7177;48.572;7.838;2024-02-23T14:56:16;5.80;;;1.50;;